createdAt,value
2018-12-26T00:00:32.210Z,52.80
2018-12-26T00:02:59.262Z,43.68
2018-12-26T00:05:26.392Z,48.35
2018-12-26T00:07:53.572Z,42.58
2018-12-26T00:10:20.645Z,46.40
2018-12-26T00:12:47.676Z,42.65
2018-12-26T00:15:14.734Z,46.15
2018-12-26T00:17:41.793Z,41.98
2018-12-26T00:20:08.856Z,43.40
2018-12-26T00:22:35.896Z,41.08
2018-12-26T00:25:03.005Z,41.53
2018-12-26T00:27:30.033Z,48.73
2018-12-26T00:29:57.102Z,47.13
2018-12-26T00:32:24.140Z,48.33
2018-12-26T00:34:51.185Z,51.53
2018-12-26T00:37:18.249Z,47.03
2018-12-26T00:39:45.309Z,45.12
2018-12-26T00:42:12.391Z,47.00
2018-12-26T00:44:39.475Z,44.45
2018-12-26T00:47:06.562Z,42.17
2018-12-26T00:49:33.591Z,48.50
2018-12-26T00:52:00.625Z,55.08
2018-12-26T00:54:27.707Z,58.38
2018-12-26T00:56:54.745Z,44.98
2018-12-26T00:59:21.810Z,53.85
2018-12-26T01:01:48.838Z,46.45
2018-12-26T01:04:15.902Z,69.25
2018-12-26T01:06:42.956Z,75.75
2018-12-26T01:09:10.035Z,61.15
2018-12-26T01:11:37.075Z,51.05
2018-12-26T01:14:04.166Z,48.08
2018-12-26T01:16:31.226Z,42.25
2018-12-26T01:18:58.326Z,48.23
2018-12-26T01:21:25.381Z,51.48
2018-12-26T01:23:52.440Z,48.95
2018-12-26T01:26:19.551Z,47.60
2018-12-26T01:28:46.639Z,52.08
2018-12-26T01:31:13.730Z,50.15
2018-12-26T01:33:40.757Z,46.73
2018-12-26T01:36:07.806Z,51.02
2018-12-26T01:38:34.863Z,63.80
2018-12-26T01:41:01.914Z,64.77
2018-12-26T01:43:28.987Z,56.50
2018-12-26T01:45:56.052Z,58.83
2018-12-26T01:48:23.080Z,52.60
2018-12-26T01:50:50.131Z,48.00
2018-12-26T01:53:17.182Z,46.13
2018-12-26T01:55:44.207Z,45.23
2018-12-26T01:58:11.274Z,47.70
2018-12-26T02:00:38.320Z,47.62
2018-12-26T02:03:05.393Z,45.15
2018-12-26T02:05:32.438Z,43.95
2018-12-26T02:07:59.510Z,42.23
2018-12-26T02:10:26.562Z,43.08
2018-12-26T02:12:53.611Z,39.35
2018-12-26T02:15:20.654Z,44.83
2018-12-26T02:17:47.714Z,46.55
2018-12-26T02:20:14.746Z,48.00
2018-12-26T02:22:41.788Z,51.15
2018-12-26T02:25:08.829Z,48.40
2018-12-26T02:27:35.887Z,49.67
2018-12-26T02:30:03.559Z,53.42
2018-12-26T02:32:30.590Z,49.53
2018-12-26T02:34:57.656Z,52.33
2018-12-26T02:37:24.701Z,52.00
2018-12-26T02:39:51.749Z,46.13
2018-12-26T02:42:18.795Z,44.67
2018-12-26T02:44:45.863Z,44.73
2018-12-26T02:47:12.898Z,44.48
2018-12-26T02:49:39.940Z,48.02
2018-12-26T02:52:06.989Z,48.15
2018-12-26T02:54:34.052Z,48.83
2018-12-26T02:57:01.095Z,43.83
2018-12-26T02:59:28.129Z,49.75
2018-12-26T03:01:55.196Z,51.65
2018-12-26T03:04:22.237Z,52.27
2018-12-26T03:06:49.367Z,44.23
2018-12-26T03:09:16.400Z,51.63
2018-12-26T03:11:43.452Z,53.80
2018-12-26T03:14:10.475Z,48.58
2018-12-26T03:16:37.523Z,48.02
2018-12-26T03:19:04.580Z,41.40
2018-12-26T03:21:31.640Z,53.15
2018-12-26T03:23:58.673Z,50.83
2018-12-26T03:26:25.716Z,48.58
2018-12-26T03:28:52.762Z,49.18
2018-12-26T03:31:19.827Z,53.35
2018-12-26T03:33:46.871Z,51.48
2018-12-26T03:36:13.919Z,55.83
2018-12-26T03:38:40.967Z,48.23
2018-12-26T03:41:08.216Z,46.98
2018-12-26T03:43:35.271Z,51.70
2018-12-26T03:46:02.529Z,51.53
2018-12-26T03:48:30.364Z,47.00
2018-12-26T03:50:57.438Z,50.75
2018-12-26T03:53:24.476Z,49.53
2018-12-26T03:55:51.518Z,52.78
2018-12-26T03:58:18.544Z,47.15
2018-12-26T04:00:45.604Z,56.42
2018-12-26T04:03:12.655Z,45.48
2018-12-26T04:05:39.715Z,48.63
2018-12-26T04:08:06.748Z,48.30
2018-12-26T04:10:33.799Z,48.80
2018-12-26T04:13:00.826Z,40.78
2018-12-26T04:15:28.098Z,46.20
2018-12-26T04:17:55.120Z,52.60
2018-12-26T04:20:22.246Z,54.25
2018-12-26T04:22:49.288Z,52.45
2018-12-26T04:25:16.519Z,50.65
2018-12-26T04:27:43.574Z,52.43
2018-12-26T04:30:10.625Z,49.73
2018-12-26T04:32:37.675Z,50.23
2018-12-26T04:35:04.702Z,43.08
2018-12-26T04:37:31.774Z,50.43
2018-12-26T04:39:58.831Z,51.63
2018-12-26T04:42:25.870Z,57.75
2018-12-26T04:44:53.170Z,58.48
2018-12-26T04:47:20.214Z,57.00
2018-12-26T04:49:47.262Z,47.93
2018-12-26T04:52:14.284Z,50.58
2018-12-26T04:54:41.322Z,52.13
2018-12-26T04:57:08.358Z,46.60
2018-12-26T04:59:35.409Z,47.93
2018-12-26T05:02:02.448Z,44.40
2018-12-26T05:04:29.491Z,53.70
2018-12-26T05:06:56.524Z,61.48
2018-12-26T05:09:23.557Z,61.18
2018-12-26T05:11:50.602Z,52.83
2018-12-26T05:14:17.628Z,51.98
2018-12-26T05:16:44.691Z,53.33
2018-12-26T05:19:11.731Z,46.45
2018-12-26T05:21:38.761Z,45.65
2018-12-26T05:24:05.803Z,41.88
2018-12-26T05:26:32.865Z,39.83
2018-12-26T05:28:59.881Z,38.65
2018-12-26T05:31:26.904Z,37.42
2018-12-26T05:33:53.968Z,41.90
2018-12-26T05:36:20.985Z,38.95
2018-12-26T05:38:48.019Z,37.83
2018-12-26T05:41:15.042Z,40.52
2018-12-26T05:43:42.103Z,35.70
2018-12-26T05:46:09.138Z,37.88
2018-12-26T05:48:36.185Z,35.45
2018-12-26T05:51:03.457Z,39.40
2018-12-26T05:53:30.537Z,32.88
2018-12-26T05:55:57.556Z,33.67
2018-12-26T05:58:24.571Z,31.62
2018-12-26T06:00:51.624Z,36.75
2018-12-26T06:03:18.653Z,34.18
2018-12-26T06:05:45.689Z,36.23
2018-12-26T06:08:12.735Z,33.20
2018-12-26T06:10:39.798Z,33.98
2018-12-26T06:13:06.818Z,32.83
2018-12-26T06:15:33.873Z,33.08
2018-12-26T06:18:00.922Z,36.17
2018-12-26T06:20:27.937Z,38.15
2018-12-26T06:22:54.978Z,38.65
2018-12-26T06:25:22.008Z,36.73
2018-12-26T06:27:51.498Z,39.08
2018-12-26T06:30:17.985Z,35.50
2018-12-26T06:32:45.029Z,40.92
2018-12-26T06:35:12.073Z,44.70
2018-12-26T06:37:39.126Z,46.23
2018-12-26T06:40:06.177Z,35.48
2018-12-26T06:42:33.241Z,45.00
2018-12-26T06:45:00.310Z,41.83
2018-12-26T06:47:27.357Z,44.67
2018-12-26T06:49:54.435Z,64.80
2018-12-26T06:52:21.485Z,50.80
2018-12-26T06:54:48.558Z,67.82
2018-12-26T06:57:15.597Z,49.27
2018-12-26T06:59:42.667Z,46.08
2018-12-26T07:02:09.703Z,44.48
2018-12-26T07:04:36.817Z,37.80
2018-12-26T07:07:03.901Z,46.33
2018-12-26T07:09:30.963Z,50.80
2018-12-26T07:11:58.027Z,41.28
2018-12-26T07:14:25.099Z,44.93
2018-12-26T07:16:52.231Z,40.75
2018-12-26T07:19:19.309Z,46.55
2018-12-26T07:21:47.911Z,47.03
2018-12-26T07:24:15.029Z,49.65
2018-12-26T07:26:42.071Z,40.50
2018-12-26T07:29:09.160Z,37.60
2018-12-26T07:31:36.225Z,47.62
2018-12-26T07:34:03.509Z,43.40
2018-12-26T07:36:30.547Z,50.65
2018-12-26T07:38:57.631Z,50.52
2018-12-26T07:41:24.752Z,44.08
2018-12-26T07:43:51.811Z,46.37
2018-12-26T07:46:18.873Z,44.10
2018-12-26T07:48:45.919Z,55.95
2018-12-26T07:51:12.997Z,44.70
2018-12-26T07:53:40.050Z,64.17
2018-12-26T07:56:07.107Z,49.88
2018-12-26T07:58:34.139Z,51.73
2018-12-26T08:01:02.999Z,44.60
2018-12-26T08:03:30.159Z,43.68
2018-12-26T08:05:57.171Z,50.65
2018-12-26T08:08:24.206Z,36.23
2018-12-26T08:10:51.264Z,41.30
2018-12-26T08:13:18.318Z,47.98
2018-12-26T08:15:45.371Z,47.83
2018-12-26T08:18:12.442Z,41.98
2018-12-26T08:20:39.467Z,41.00
2018-12-26T08:23:06.506Z,38.45
2018-12-26T08:25:33.560Z,39.35
2018-12-26T08:28:00.600Z,38.70
2018-12-26T08:30:28.507Z,42.20
2018-12-26T08:32:55.559Z,36.03
2018-12-26T08:35:22.634Z,44.93
2018-12-26T08:37:49.676Z,41.98
2018-12-26T08:40:16.769Z,42.75
2018-12-26T08:42:43.814Z,41.73
2018-12-26T08:45:10.881Z,40.80
2018-12-26T08:47:37.935Z,40.95
2018-12-26T08:50:06.226Z,42.95
2018-12-26T08:52:33.290Z,48.68
2018-12-26T08:55:00.327Z,46.58
2018-12-26T08:57:27.386Z,48.90
2018-12-26T08:59:54.428Z,213.05
2018-12-26T09:02:21.497Z,105.25
2018-12-26T09:04:48.560Z,71.05
2018-12-26T09:07:15.617Z,123.35
2018-12-26T09:09:42.688Z,33.65
2018-12-26T09:12:09.767Z,37.58
2018-12-26T09:14:36.820Z,31.45
2018-12-26T09:17:03.877Z,31.25
2018-12-26T09:19:30.956Z,31.40
2018-12-26T09:21:57.995Z,32.53
2018-12-26T09:24:25.159Z,32.60
2018-12-26T09:26:52.205Z,33.48
2018-12-26T09:29:19.254Z,39.53
2018-12-26T09:31:46.341Z,37.45
2018-12-26T09:34:13.356Z,41.60
2018-12-26T09:36:40.415Z,40.12
2018-12-26T09:39:07.466Z,32.15
2018-12-26T09:41:34.530Z,49.98
2018-12-26T09:44:01.580Z,37.42
2018-12-26T09:46:28.643Z,55.25
2018-12-26T09:48:55.686Z,43.20
2018-12-26T09:51:22.719Z,21.97
2018-12-26T09:53:49.773Z,26.73
2018-12-26T09:56:16.814Z,19.92
2018-12-26T09:58:52.315Z,20.30
2018-12-26T10:01:12.808Z,13.53
2018-12-26T10:03:39.857Z,8.98
2018-12-26T10:06:06.892Z,8.65
2018-12-26T10:08:33.961Z,9.43
2018-12-26T10:11:01.013Z,11.22
2018-12-26T10:13:28.070Z,11.50
2018-12-26T10:15:55.123Z,9.03
2018-12-26T10:18:22.197Z,12.13
2018-12-26T10:20:49.267Z,9.68
2018-12-26T10:23:16.288Z,8.85
2018-12-26T10:25:43.336Z,10.25
2018-12-26T10:28:10.388Z,11.20
2018-12-26T10:30:37.498Z,9.55
2018-12-26T10:33:04.553Z,8.40
2018-12-26T10:35:31.614Z,7.55
2018-12-26T10:37:58.671Z,8.90
2018-12-26T10:40:25.722Z,7.15
2018-12-26T10:42:52.757Z,7.30
2018-12-26T10:45:19.826Z,8.63
2018-12-26T10:47:46.857Z,9.68
2018-12-26T10:50:13.900Z,9.35
2018-12-26T10:52:40.959Z,9.00
2018-12-26T10:55:08.001Z,7.20
2018-12-26T10:57:35.097Z,7.70
2018-12-26T11:00:02.164Z,5.87
2018-12-26T11:02:29.208Z,6.17
2018-12-26T11:04:56.251Z,7.33
2018-12-26T11:07:23.300Z,9.38
2018-12-26T11:09:50.359Z,6.60
2018-12-26T11:12:17.816Z,5.95
2018-12-26T11:14:44.917Z,5.72
2018-12-26T11:17:11.989Z,6.72
2018-12-26T11:19:39.155Z,7.65
2018-12-26T11:22:06.195Z,6.55
2018-12-26T11:24:33.267Z,7.33
2018-12-26T11:27:00.313Z,11.25
2018-12-26T11:29:27.363Z,6.97
2018-12-26T11:31:54.424Z,10.45
2018-12-26T11:34:21.501Z,5.87
2018-12-26T11:36:48.602Z,7.62
2018-12-26T11:39:15.645Z,10.78
2018-12-26T11:41:44.613Z,7.35
2018-12-26T11:44:11.675Z,10.28
2018-12-26T11:46:38.741Z,9.50
2018-12-26T11:49:05.797Z,5.53
2018-12-26T11:51:32.865Z,6.67
2018-12-26T11:53:59.987Z,7.87
2018-12-26T11:56:27.038Z,7.83
2018-12-26T11:58:54.095Z,6.80
2018-12-26T12:01:21.142Z,7.97
2018-12-26T12:03:48.232Z,6.97
2018-12-26T12:06:15.273Z,9.78
2018-12-26T12:08:42.359Z,6.65
2018-12-26T12:11:09.418Z,7.72
2018-12-26T12:13:36.480Z,10.50
2018-12-26T12:16:03.526Z,6.03
2018-12-26T12:18:30.594Z,9.35
2018-12-26T12:20:57.637Z,6.72
2018-12-26T12:23:24.675Z,7.92
2018-12-26T12:25:51.736Z,7.58
2018-12-26T12:28:18.778Z,7.72
2018-12-26T12:30:45.861Z,8.25
2018-12-26T12:33:12.915Z,8.60
2018-12-26T12:35:40.006Z,48.55
2018-12-26T12:38:07.052Z,44.77
2018-12-26T12:40:34.350Z,9.80
2018-12-26T12:43:01.429Z,8.55
2018-12-26T12:45:28.464Z,6.10
2018-12-26T12:47:55.633Z,8.68
2018-12-26T12:50:22.718Z,6.58
2018-12-26T12:52:49.778Z,9.55
2018-12-26T12:55:16.846Z,6.75
2018-12-26T12:57:43.926Z,8.70
2018-12-26T13:00:10.981Z,8.03
2018-12-26T13:02:38.049Z,6.60
2018-12-26T13:05:05.146Z,18.25
2018-12-26T13:07:32.170Z,22.77
2018-12-26T13:09:59.247Z,29.02
2018-12-26T13:12:26.298Z,7.78
2018-12-26T13:14:53.408Z,11.75
2018-12-26T13:17:20.429Z,8.60
2018-12-26T13:19:47.481Z,11.40
2018-12-26T13:22:14.559Z,14.98
2018-12-26T13:24:41.643Z,7.58
2018-12-26T13:27:08.695Z,10.48
2018-12-26T13:29:35.768Z,12.88
2018-12-26T13:32:02.871Z,15.98
2018-12-26T13:34:29.919Z,17.32
2018-12-26T13:36:57.320Z,16.60
2018-12-26T13:39:24.413Z,18.45
2018-12-26T13:41:51.485Z,19.00
2018-12-26T13:44:18.536Z,23.55
2018-12-26T13:46:45.664Z,26.27
2018-12-26T13:49:12.730Z,16.75
2018-12-26T13:51:39.830Z,19.98
2018-12-26T13:54:06.902Z,21.75
2018-12-26T13:56:33.960Z,20.85
2018-12-26T13:59:01.046Z,19.32
2018-12-26T14:01:28.659Z,20.72
2018-12-26T14:03:55.742Z,23.83
2018-12-26T14:06:22.895Z,25.72
2018-12-26T14:08:49.956Z,26.82
2018-12-26T14:11:17.004Z,27.22
2018-12-26T14:13:44.409Z,39.38
2018-12-26T14:16:11.450Z,35.25
2018-12-26T14:18:38.536Z,26.75
2018-12-26T14:21:05.618Z,23.27
2018-12-26T14:23:32.684Z,25.80
2018-12-26T14:25:59.760Z,22.95
2018-12-26T14:28:26.822Z,25.30
2018-12-26T14:30:53.909Z,22.35
2018-12-26T14:33:20.971Z,25.85
2018-12-26T14:35:58.015Z,19.75
2018-12-26T14:38:25.402Z,19.80
2018-12-26T14:40:52.495Z,24.87
2018-12-26T14:43:19.573Z,26.12
2018-12-26T14:45:46.662Z,23.35
2018-12-26T14:48:13.747Z,30.68
2018-12-26T14:50:40.800Z,25.62
2018-12-26T14:53:07.908Z,20.92
2018-12-26T14:55:34.961Z,23.30
2018-12-26T14:58:02.068Z,26.93
2018-12-26T15:00:29.187Z,25.10
2018-12-26T15:02:56.357Z,32.70
2018-12-26T15:05:23.461Z,27.82
2018-12-26T15:07:50.571Z,28.73
2018-12-26T15:10:17.706Z,31.30
2018-12-26T15:12:44.776Z,24.72
2018-12-26T15:15:11.862Z,28.52
2018-12-26T15:17:38.955Z,24.85
2018-12-26T15:20:06.309Z,27.10
2018-12-26T15:22:33.406Z,30.35
2018-12-26T15:25:00.555Z,29.27
2018-12-26T15:27:27.643Z,28.45
2018-12-26T15:29:54.769Z,28.27
2018-12-26T15:32:21.891Z,29.05
2018-12-26T15:34:49.003Z,27.13
2018-12-26T15:37:16.133Z,26.00
2018-12-26T15:39:43.211Z,28.25
2018-12-26T15:42:10.351Z,33.10
2018-12-26T15:44:37.463Z,47.80
2018-12-26T15:47:04.687Z,43.90
2018-12-26T15:49:31.839Z,39.03
2018-12-26T15:51:59.011Z,39.10
2018-12-26T15:54:26.150Z,35.70
2018-12-26T15:56:53.246Z,37.28
2018-12-26T15:59:20.382Z,28.70
2018-12-26T16:01:47.797Z,34.83
2018-12-26T16:04:14.959Z,36.20
2018-12-26T16:06:42.111Z,40.00
2018-12-26T16:09:09.212Z,40.35
2018-12-26T16:11:36.365Z,40.43
2018-12-26T16:14:03.473Z,38.80
2018-12-26T16:16:30.607Z,42.17
2018-12-26T16:18:58.675Z,37.90
2018-12-26T16:21:25.826Z,40.78
2018-12-26T16:23:52.977Z,38.15
2018-12-26T16:26:20.101Z,40.90
2018-12-26T16:28:47.214Z,38.63
2018-12-26T16:31:14.361Z,32.28
2018-12-26T16:33:41.788Z,36.85
2018-12-26T16:36:08.927Z,31.52
2018-12-26T16:38:36.081Z,35.33
2018-12-26T16:41:03.225Z,35.90
2018-12-26T16:43:30.334Z,35.83
2018-12-26T16:45:57.431Z,45.58
2018-12-26T16:48:24.609Z,51.95
2018-12-26T16:50:51.736Z,46.98
2018-12-26T16:53:18.906Z,43.30
2018-12-26T16:55:46.021Z,65.80
2018-12-26T16:58:13.159Z,63.65
2018-12-26T17:00:40.289Z,61.48
2018-12-26T17:03:07.647Z,53.52
2018-12-26T17:05:34.821Z,54.53
2018-12-26T17:08:01.968Z,47.73
2018-12-26T17:10:29.110Z,47.95
2018-12-26T17:12:56.231Z,40.05
2018-12-26T17:15:23.387Z,36.45
2018-12-26T17:17:50.546Z,42.33
2018-12-26T17:20:17.761Z,39.53
2018-12-26T17:22:44.872Z,40.25
2018-12-26T17:25:12.190Z,44.80
2018-12-26T17:27:39.343Z,41.50
2018-12-26T17:30:06.962Z,44.80
2018-12-26T17:32:34.153Z,44.93
2018-12-26T17:35:01.314Z,42.60
2018-12-26T17:37:28.490Z,50.95
2018-12-26T17:39:55.648Z,55.48
2018-12-26T17:42:22.946Z,47.15
2018-12-26T17:44:52.304Z,51.88
2018-12-26T17:47:19.452Z,56.40
2018-12-26T17:49:46.589Z,48.55
2018-12-26T17:52:14.045Z,49.50
2018-12-26T17:55:18.927Z,50.23
2018-12-26T17:57:48.456Z,98.40
2018-12-26T18:00:34.587Z,63.05
2018-12-26T18:03:01.685Z,59.60
2018-12-26T18:05:28.816Z,46.60
2018-12-26T18:07:55.961Z,49.73
2018-12-26T18:10:23.059Z,54.85
2018-12-26T18:12:50.201Z,47.00
2018-12-26T18:15:17.323Z,49.33
2018-12-26T18:17:44.460Z,52.80
2018-12-26T18:20:13.394Z,56.85
2018-12-26T18:22:40.572Z,69.05
2018-12-26T18:25:07.958Z,61.68
2018-12-26T18:27:35.072Z,70.25
2018-12-26T18:30:03.057Z,68.22
2018-12-26T18:32:30.170Z,79.15
2018-12-26T18:34:57.337Z,82.95
2018-12-26T18:37:24.494Z,63.45
2018-12-26T18:39:51.661Z,47.58
2018-12-26T18:42:18.809Z,45.38
2018-12-26T18:44:46.061Z,36.13
2018-12-26T18:47:14.005Z,44.63
2018-12-26T18:49:43.612Z,44.83
2018-12-26T18:52:10.784Z,41.35
2018-12-26T18:54:37.903Z,38.08
2018-12-26T18:57:05.100Z,41.63
2018-12-26T18:59:32.577Z,42.80
2018-12-26T19:01:59.702Z,45.25
2018-12-26T19:04:26.857Z,39.42
2018-12-26T19:06:53.987Z,47.05
2018-12-26T19:09:21.198Z,67.03
2018-12-26T19:11:48.414Z,74.20
2018-12-26T19:14:17.591Z,57.15
2018-12-26T19:16:44.969Z,53.60
2018-12-26T19:19:12.160Z,45.95
2018-12-26T19:21:40.125Z,43.55
2018-12-26T19:24:07.232Z,49.55
2018-12-26T19:26:36.897Z,65.45
2018-12-26T19:29:04.048Z,77.05
2018-12-26T19:31:39.455Z,68.07
2018-12-26T19:34:03.948Z,67.70
2018-12-26T19:36:31.150Z,66.10
2018-12-26T19:38:58.294Z,63.13
2018-12-26T19:41:26.517Z,58.33
2018-12-26T19:43:53.817Z,44.90
2018-12-26T19:46:21.462Z,51.15
2018-12-26T19:48:50.561Z,47.90
2018-12-26T19:51:17.823Z,44.70
2018-12-26T19:53:45.158Z,44.90
2018-12-26T19:56:12.472Z,51.75
2018-12-26T19:58:39.890Z,53.78
2018-12-26T20:01:10.399Z,53.98
2018-12-26T20:03:37.720Z,54.45
2018-12-26T20:06:05.192Z,59.27
2018-12-26T20:08:32.405Z,50.30
2018-12-26T20:10:59.702Z,49.67
2018-12-26T20:13:26.959Z,52.45
2018-12-26T20:15:56.596Z,59.83
2018-12-26T20:18:24.330Z,58.98
2018-12-26T20:20:52.007Z,53.55
2018-12-26T20:23:21.330Z,45.70
2018-12-26T20:25:49.091Z,62.98
2018-12-26T20:28:19.686Z,55.15
2018-12-26T20:30:48.061Z,49.18
2018-12-26T20:33:18.189Z,62.03
2018-12-26T20:35:46.285Z,52.27
2018-12-26T20:38:13.783Z,54.93
2018-12-26T20:40:46.047Z,56.77
2018-12-26T20:43:13.985Z,50.38
2018-12-26T20:45:41.469Z,52.25
2018-12-26T20:48:09.386Z,58.42
2018-12-26T20:50:38.414Z,54.00
2018-12-26T20:53:05.943Z,55.20
2018-12-26T20:55:33.384Z,56.50
2018-12-26T20:58:06.447Z,53.70
2018-12-26T21:00:34.457Z,62.75
2018-12-26T21:03:01.917Z,58.00
2018-12-26T21:05:29.993Z,62.95
2018-12-26T21:07:57.668Z,107.25
2018-12-26T21:10:25.403Z,67.80
2018-12-26T21:12:54.018Z,61.95
2018-12-26T21:15:22.850Z,68.17
2018-12-26T21:17:54.493Z,68.67
2018-12-26T21:20:22.998Z,56.58
2018-12-26T21:22:50.577Z,57.50
2018-12-26T21:25:18.187Z,75.12
2018-12-26T21:27:45.472Z,174.05
2018-12-26T21:30:15.191Z,100.12
2018-12-26T21:32:42.453Z,55.80
2018-12-26T21:35:09.734Z,57.25
2018-12-26T21:37:36.933Z,86.60
2018-12-26T21:40:04.902Z,216.02
2018-12-26T21:42:32.311Z,65.85
2018-12-26T21:45:00.234Z,65.20
2018-12-26T21:47:27.396Z,82.20
2018-12-26T21:49:54.836Z,67.95
2018-12-26T21:52:22.246Z,141.25
2018-12-26T21:54:50.011Z,70.03
2018-12-26T21:57:17.193Z,65.35
2018-12-26T21:59:44.348Z,70.52
2018-12-26T22:02:11.513Z,65.70
2018-12-26T22:04:41.532Z,71.72
2018-12-26T22:07:08.653Z,68.10
2018-12-26T22:09:35.852Z,65.47
2018-12-26T22:12:02.992Z,67.12
2018-12-26T22:14:30.131Z,63.80
2018-12-26T22:16:57.600Z,61.53
2018-12-26T22:19:25.069Z,67.53
2018-12-26T22:21:52.260Z,65.90
2018-12-26T22:24:19.429Z,66.60
2018-12-26T22:26:46.597Z,75.30
2018-12-26T22:29:13.946Z,75.22
2018-12-26T22:31:41.429Z,78.67
2018-12-26T22:34:08.549Z,67.97
2018-12-26T22:36:35.708Z,77.65
2018-12-26T22:39:04.666Z,67.25
2018-12-26T22:41:32.074Z,62.30
2018-12-26T22:43:59.259Z,64.60
2018-12-26T22:46:26.400Z,60.23
2018-12-26T22:48:53.889Z,55.45
2018-12-26T22:51:21.024Z,57.40
2018-12-26T22:53:48.179Z,49.48
2018-12-26T22:56:15.307Z,51.80
2018-12-26T22:58:42.398Z,56.45
2018-12-26T23:01:09.547Z,54.45
2018-12-26T23:03:36.662Z,48.80
2018-12-26T23:06:03.795Z,55.90
2018-12-26T23:08:30.926Z,55.35
2018-12-26T23:10:58.048Z,54.55
2018-12-26T23:13:25.184Z,50.98
2018-12-26T23:15:52.306Z,57.90
2018-12-26T23:18:19.398Z,63.83
2018-12-26T23:20:46.534Z,59.60
2018-12-26T23:23:13.727Z,64.22
2018-12-26T23:25:40.791Z,68.78
2018-12-26T23:28:07.858Z,70.08
2018-12-26T23:30:34.920Z,69.70
2018-12-26T23:33:02.021Z,88.40
2018-12-26T23:35:29.087Z,69.05
2018-12-26T23:37:56.148Z,75.65
2018-12-26T23:40:23.222Z,77.45
2018-12-26T23:42:50.276Z,67.08
2018-12-26T23:45:17.346Z,78.87
2018-12-26T23:47:44.382Z,80.57
2018-12-26T23:50:11.433Z,63.33
2018-12-26T23:52:38.494Z,62.25
2018-12-26T23:55:05.545Z,72.72
2018-12-26T23:57:32.610Z,58.45
2018-12-26T23:59:59.657Z,58.08
